Time;durP1;ratioP1;P1;durP2;ratioP2;P2;SDS_P1;SDS_P2;PMS_P1;PMS_P2;Temp;Humidity;BMP_temperature;BMP_pressure;BME280_temperature;BME280_humidity;BME280_pressure;Samples;Min_cycle;Max_cycle;Signal;HPM_P1;HPM_P2
2023/05/28 00:01:55;;;;;;;15.50;7.97;;;12.30;79.20;;;;;;5022788;28;20467;-62
2023/05/28 00:04:21;;;;;;;14.37;6.73;;;12.20;79.10;;;;;;5020535;28;20638;-62
2023/05/28 00:06:48;;;;;;;15.83;6.90;;;12.20;79.50;;;;;;5015934;28;20207;-61
2023/05/28 00:09:14;;;;;;;17.73;7.40;;;12.10;80.20;;;;;;5009211;28;20466;-62
2023/05/28 00:11:40;;;;;;;16.03;8.00;;;12.10;81.20;;;;;;5019532;28;20442;-62
2023/05/28 00:14:06;;;;;;;13.53;7.00;;;12.10;81.90;;;;;;5025727;28;20447;-62
2023/05/28 00:16:35;;;;;;;10.50;7.67;;;12.00;83.10;;;;;;5022684;28;20199;-63
2023/05/28 00:19:01;;;;;;;14.63;7.60;;;11.90;84.00;;;;;;5012235;28;20230;-61
2023/05/28 00:21:27;;;;;;;10.93;7.17;;;11.90;84.60;;;;;;5007313;28;20443;-62
2023/05/28 00:23:53;;;;;;;10.10;7.50;;;11.90;85.30;;;;;;5019099;28;20495;-62
2023/05/28 00:26:18;;;;;;;13.23;7.50;;;11.90;85.90;;;;;;5022506;28;20176;-62
2023/05/28 00:28:44;;;;;;;13.97;7.40;;;11.90;87.00;;;;;;5018357;28;20265;-62
2023/05/28 00:31:10;;;;;;;17.40;7.23;;;11.80;87.20;;;;;;5012604;28;20207;-62
2023/05/28 00:33:36;;;;;;;14.70;7.83;;;11.80;87.60;;;;;;5022472;28;20176;-62
2023/05/28 00:36:01;;;;;;;17.00;8.27;;;11.80;88.70;;;;;;5015636;28;20498;-62
2023/05/28 00:38:27;;;;;;;17.90;7.40;;;11.70;89.60;;;;;;5025322;28;20180;-62
2023/05/28 00:40:54;;;;;;;18.30;7.80;;;11.70;90.00;;;;;;5023786;28;20222;-62
2023/05/28 00:43:20;;;;;;;17.33;7.00;;;11.60;90.40;;;;;;5024807;28;20180;-62
2023/05/28 00:45:48;;;;;;;13.70;7.97;;;11.60;90.80;;;;;;5014845;28;20455;-62
2023/05/28 00:48:14;;;;;;;14.00;7.40;;;11.60;90.70;;;;;;5020375;28;20441;-62
2023/05/28 00:50:41;;;;;;;15.07;7.63;;;11.60;90.80;;;;;;5018504;28;20450;-62
2023/05/28 00:53:08;;;;;;;14.63;7.70;;;11.60;90.80;;;;;;5021289;28;20439;-61
2023/05/28 00:55:34;;;;;;;11.43;7.80;;;11.50;90.60;;;;;;5023595;28;20987;-61
2023/05/28 00:58:05;;;;;;;24.50;7.83;;;11.50;90.90;;;;;;5019009;28;20442;-62
2023/05/28 01:00:32;;;;;;;17.53;9.27;;;11.50;91.30;;;;;;5021259;28;21109;-62
2023/05/28 01:02:58;;;;;;;57.40;24.00;;;11.50;91.50;;;;;;5024350;28;20477;-62
2023/05/28 01:05:24;;;;;;;30.90;13.47;;;11.50;91.50;;;;;;5019399;28;20438;-62
2023/05/28 01:07:50;;;;;;;19.67;9.90;;;11.40;91.90;;;;;;5020940;28;20794;-62
2023/05/28 01:10:16;;;;;;;22.60;9.20;;;11.40;92.20;;;;;;5017116;28;20286;-62
2023/05/28 01:12:43;;;;;;;18.20;8.37;;;11.40;92.50;;;;;;5026847;28;20458;-62
2023/05/28 01:15:10;;;;;;;11.40;7.27;;;11.30;92.60;;;;;;5019062;28;20422;-61
2023/05/28 01:17:38;;;;;;;15.97;7.57;;;11.30;92.80;;;;;;5018385;28;20814;-61
2023/05/28 01:20:10;;;;;;;12.80;7.33;;;11.30;93.00;;;;;;5023014;28;20458;-62
2023/05/28 01:23:01;;;;;;;11.50;7.07;;;11.20;93.50;;;;;;5027793;28;20434;-61
2023/05/28 01:25:27;;;;;;;17.63;7.90;;;11.20;93.50;;;;;;5028222;28;20439;-62
2023/05/28 01:27:54;;;;;;;14.77;7.40;;;11.20;94.00;;;;;;5028249;28;20442;-62
2023/05/28 01:30:20;;;;;;;11.60;7.20;;;11.10;94.20;;;;;;5024629;28;20470;-62
2023/05/28 01:32:45;;;;;;;12.03;7.03;;;11.10;94.50;;;;;;5023048;28;20435;-62
2023/05/28 01:35:12;;;;;;;19.43;7.60;;;11.10;94.50;;;;;;5022458;28;20859;-62
2023/05/28 01:37:45;;;;;;;13.77;7.20;;;11.00;94.60;;;;;;5023446;28;20813;-61
2023/05/28 01:40:14;;;;;;;16.37;7.67;;;11.00;94.80;;;;;;5015727;28;20839;-61
2023/05/28 01:42:40;;;;;;;16.17;7.10;;;10.90;94.70;;;;;;5018250;28;20518;-62
2023/05/28 01:45:08;;;;;;;14.23;7.80;;;10.90;95.10;;;;;;5024170;28;20537;-61
2023/05/28 01:47:34;;;;;;;12.33;7.00;;;10.90;95.50;;;;;;5023251;28;20213;-62
2023/05/28 01:50:00;;;;;;;10.87;7.40;;;10.90;96.30;;;;;;5020474;28;20481;-61
2023/05/28 01:52:26;;;;;;;14.13;7.60;;;10.90;96.40;;;;;;5025547;28;20431;-62
2023/05/28 01:54:51;;;;;;;11.90;6.90;;;10.90;96.40;;;;;;5028645;28;20430;-61
2023/05/28 01:57:17;;;;;;;11.40;6.90;;;10.90;96.40;;;;;;5019327;28;20287;-61
2023/05/28 01:59:43;;;;;;;16.00;7.07;;;10.90;96.50;;;;;;5016839;28;20250;-62
2023/05/28 02:02:08;;;;;;;13.40;7.23;;;10.90;96.80;;;;;;5018386;28;20179;-62
2023/05/28 02:04:34;;;;;;;18.07;7.60;;;10.80;96.70;;;;;;5023180;28;20204;-62
2023/05/28 02:07:00;;;;;;;16.77;8.00;;;10.80;96.90;;;;;;5022452;28;20240;-62
2023/05/28 02:09:25;;;;;;;12.10;6.87;;;10.80;97.30;;;;;;5020837;28;20199;-62
2023/05/28 02:11:51;;;;;;;13.10;7.40;;;10.70;97.40;;;;;;5022585;28;20458;-61
2023/05/28 02:14:17;;;;;;;13.80;7.33;;;10.70;97.50;;;;;;5024684;28;20229;-62
2023/05/28 02:16:47;;;;;;;13.80;7.80;;;10.60;98.10;;;;;;5021580;28;20231;-62
2023/05/28 02:19:14;;;;;;;11.90;7.17;;;10.60;98.50;;;;;;5017985;28;20526;-62
2023/05/28 02:21:40;;;;;;;14.50;7.60;;;10.60;99.30;;;;;;5015994;28;20442;-62
2023/05/28 02:24:06;;;;;;;12.10;7.23;;;10.50;99.20;;;;;;5021141;28;20438;-62
2023/05/28 02:26:32;;;;;;;11.70;6.90;;;10.50;99.70;;;;;;5026463;28;20234;-62
2023/05/28 02:28:58;;;;;;;11.87;7.27;;;10.50;99.80;;;;;;5024136;28;20469;-62
2023/05/28 02:31:24;;;;;;;12.40;7.17;;;10.40;99.80;;;;;;5018295;28;20430;-62
2023/05/28 02:33:49;;;;;;;16.80;7.67;;;10.40;99.90;;;;;;5022023;28;20219;-62
2023/05/28 02:36:15;;;;;;;13.93;7.07;;;10.40;99.90;;;;;;5015350;28;20306;-62
2023/05/28 02:38:41;;;;;;;14.47;6.63;;;10.40;99.90;;;;;;5022733;28;20176;-62
2023/05/28 02:41:07;;;;;;;12.57;7.63;;;10.40;99.90;;;;;;5020201;28;20266;-61
2023/05/28 02:43:33;;;;;;;17.60;7.80;;;10.40;99.90;;;;;;5022087;28;20514;-62
2023/05/28 02:45:59;;;;;;;11.40;7.37;;;10.40;99.90;;;;;;5022638;28;20291;-62
2023/05/28 02:48:25;;;;;;;16.57;6.77;;;10.50;99.90;;;;;;5018089;28;21006;-62
2023/05/28 02:50:51;;;;;;;13.37;8.00;;;10.40;99.90;;;;;;5019196;28;20180;-61
2023/05/28 02:53:20;;;;;;;14.77;7.00;;;10.40;99.90;;;;;;5021717;28;20446;-61
2023/05/28 02:55:46;;;;;;;14.77;7.10;;;10.40;99.90;;;;;;5021656;28;20191;-62
2023/05/28 02:58:12;;;;;;;11.87;6.60;;;10.40;99.90;;;;;;5023695;28;20434;-62
2023/05/28 03:00:38;;;;;;;17.80;8.07;;;10.40;99.90;;;;;;5016480;28;22299;-61
2023/05/28 03:03:04;;;;;;;14.27;7.77;;;10.30;99.90;;;;;;5022984;28;20480;-62
2023/05/28 03:05:31;;;;;;;16.87;7.33;;;10.30;99.90;;;;;;5021186;28;20430;-61
2023/05/28 03:07:57;;;;;;;10.10;6.73;;;10.30;99.90;;;;;;5023586;28;20196;-62
2023/05/28 03:10:23;;;;;;;11.50;7.83;;;10.30;99.90;;;;;;5023053;28;20896;-63
2023/05/28 03:12:48;;;;;;;11.90;6.90;;;10.20;99.90;;;;;;5020638;28;20436;-61
2023/05/28 03:15:14;;;;;;;12.00;6.87;;;10.20;99.90;;;;;;5019831;28;20191;-62
2023/05/28 03:17:40;;;;;;;13.63;7.67;;;10.20;99.90;;;;;;5019725;28;20203;-62
2023/05/28 03:20:09;;;;;;;9.53;7.03;;;10.20;99.90;;;;;;5023518;28;20249;-62
2023/05/28 03:22:36;;;;;;;11.87;6.90;;;10.10;99.90;;;;;;5017312;28;20196;-62
2023/05/28 03:25:05;;;;;;;10.57;6.70;;;10.10;99.90;;;;;;5022832;28;20441;-62
2023/05/28 03:27:31;;;;;;;12.83;6.87;;;10.10;99.90;;;;;;5026666;28;20438;-61
2023/05/28 03:29:57;;;;;;;11.87;7.70;;;10.00;99.90;;;;;;5020546;28;20465;-61
2023/05/28 03:32:22;;;;;;;15.83;7.47;;;10.00;99.90;;;;;;5020798;28;20438;-61
2023/05/28 03:34:48;;;;;;;16.67;7.80;;;10.00;99.90;;;;;;5025000;28;20270;-62
2023/05/28 03:37:14;;;;;;;19.10;7.80;;;10.00;99.90;;;;;;5017800;28;20204;-61
2023/05/28 03:39:39;;;;;;;12.20;6.70;;;9.90;99.90;;;;;;5024941;28;20196;-62
2023/05/28 03:42:05;;;;;;;14.23;7.07;;;9.90;99.90;;;;;;5020821;28;20195;-62
2023/05/28 03:44:31;;;;;;;14.23;7.30;;;9.90;99.90;;;;;;5024395;28;20192;-62
2023/05/28 03:46:57;;;;;;;11.70;6.73;;;9.90;99.90;;;;;;5016986;28;20210;-61
2023/05/28 03:49:23;;;;;;;11.10;7.37;;;9.80;99.90;;;;;;5023141;28;20204;-61
2023/05/28 03:51:48;;;;;;;14.13;7.37;;;9.80;99.90;;;;;;5021380;28;20493;-62
2023/05/28 03:54:14;;;;;;;12.93;6.77;;;9.80;99.90;;;;;;5019323;28;20289;-61
2023/05/28 03:56:39;;;;;;;9.10;6.57;;;9.80;99.90;;;;;;5025569;28;20200;-61
2023/05/28 03:59:05;;;;;;;12.30;6.30;;;9.70;99.90;;;;;;5021640;28;20196;-62
2023/05/28 04:01:31;;;;;;;10.17;5.80;;;9.70;99.90;;;;;;5019372;28;20233;-62
2023/05/28 04:03:56;;;;;;;10.40;6.87;;;9.70;99.90;;;;;;5020495;28;20197;-62
2023/05/28 04:06:22;;;;;;;13.27;6.70;;;9.70;99.90;;;;;;5023308;28;20727;-61
2023/05/28 04:08:48;;;;;;;12.57;6.93;;;9.70;99.90;;;;;;5019253;28;20277;-62
2023/05/28 04:11:14;;;;;;;19.17;7.97;;;9.70;99.90;;;;;;5017553;28;20798;-62
2023/05/28 04:13:40;;;;;;;15.93;7.23;;;9.70;99.90;;;;;;5023327;28;20629;-61
2023/05/28 04:16:06;;;;;;;13.90;7.27;;;9.70;99.90;;;;;;5019669;28;20210;-61
2023/05/28 04:18:32;;;;;;;15.80;7.43;;;9.70;99.90;;;;;;5020420;28;20459;-61
2023/05/28 04:20:58;;;;;;;14.50;7.60;;;9.80;99.90;;;;;;5023015;28;20458;-62
2023/05/28 04:23:23;;;;;;;12.70;7.13;;;9.80;99.90;;;;;;5023018;28;20462;-61
2023/05/28 04:25:50;;;;;;;13.10;7.50;;;9.80;99.90;;;;;;5020061;28;20191;-62
2023/05/28 04:28:15;;;;;;;13.00;7.40;;;9.80;99.90;;;;;;5018224;28;20639;-63
2023/05/28 04:30:41;;;;;;;23.37;8.47;;;9.90;99.90;;;;;;5020105;28;20552;-61
2023/05/28 04:33:07;;;;;;;14.80;8.40;;;9.80;99.90;;;;;;5017198;28;20188;-61
2023/05/28 04:35:32;;;;;;;13.57;7.00;;;9.90;99.90;;;;;;5022878;28;20223;-61
2023/05/28 04:37:59;;;;;;;11.60;7.07;;;9.90;99.90;;;;;;5016311;28;20185;-62
2023/05/28 04:40:25;;;;;;;10.37;6.97;;;10.00;99.90;;;;;;5020643;28;21874;-62
2023/05/28 04:42:53;;;;;;;15.00;7.57;;;10.00;99.90;;;;;;5023784;28;20438;-61
2023/05/28 04:45:19;;;;;;;10.97;6.90;;;10.00;99.90;;;;;;5024741;28;20187;-63
2023/05/28 04:47:45;;;;;;;13.17;6.77;;;10.10;99.90;;;;;;5022576;28;20426;-61
2023/05/28 04:50:11;;;;;;;11.43;7.17;;;10.20;99.90;;;;;;5024844;28;20472;-63
2023/05/28 04:52:37;;;;;;;18.47;7.30;;;10.20;99.90;;;;;;5024289;28;20172;-61
2023/05/28 04:55:06;;;;;;;14.10;7.00;;;10.20;99.90;;;;;;5021989;28;20187;-62
2023/05/28 04:57:32;;;;;;;16.37;6.87;;;10.30;99.90;;;;;;5026432;28;20203;-61
2023/05/28 04:59:58;;;;;;;12.73;7.00;;;10.40;99.90;;;;;;5027225;28;20458;-61
2023/05/28 05:02:24;;;;;;;13.60;7.30;;;10.40;99.90;;;;;;5019064;28;20520;-62
2023/05/28 05:04:50;;;;;;;15.33;7.17;;;10.50;99.90;;;;;;5021287;28;20958;-62
2023/05/28 05:07:16;;;;;;;11.97;6.67;;;10.60;99.90;;;;;;5026600;28;20222;-61
2023/05/28 05:09:42;;;;;;;11.40;6.40;;;10.60;99.90;;;;;;5018881;28;20245;-62
2023/05/28 05:12:08;;;;;;;14.90;6.50;;;10.70;99.90;;;;;;5018761;28;20435;-62
2023/05/28 05:14:34;;;;;;;11.80;7.17;;;10.80;99.90;;;;;;5023352;28;20202;-62
2023/05/28 05:17:00;;;;;;;11.50;6.50;;;10.90;99.90;;;;;;5021668;28;21016;-62
2023/05/28 05:19:26;;;;;;;17.50;7.60;;;11.00;99.90;;;;;;5018877;28;20450;-61
2023/05/28 05:21:52;;;;;;;14.57;7.50;;;11.00;99.90;;;;;;5025168;28;20242;-62
2023/05/28 05:24:18;;;;;;;15.23;7.13;;;11.10;99.90;;;;;;5016508;28;20889;-61
2023/05/28 05:26:43;;;;;;;12.27;7.03;;;11.20;99.90;;;;;;5010539;28;20195;-62
2023/05/28 05:29:09;;;;;;;15.67;7.67;;;11.30;99.90;;;;;;5020526;28;20761;-62
2023/05/28 05:31:35;;;;;;;10.53;6.40;;;11.30;99.90;;;;;;5021610;28;20214;-62
2023/05/28 05:34:01;;;;;;;12.27;7.80;;;11.40;99.70;;;;;;5024080;28;20466;-61
2023/05/28 05:36:26;;;;;;;13.57;7.20;;;11.50;98.50;;;;;;5020642;28;20270;-62
2023/05/28 05:38:52;;;;;;;11.83;7.53;;;11.50;96.50;;;;;;5019679;28;20717;-62
2023/05/28 05:41:17;;;;;;;17.57;8.17;;;11.60;96.30;;;;;;5022359;28;20183;-61
2023/05/28 05:43:43;;;;;;;11.73;7.17;;;11.70;96.40;;;;;;5023881;28;20326;-62
2023/05/28 05:46:09;;;;;;;13.80;7.37;;;11.70;96.20;;;;;;5018596;28;20183;-61
2023/05/28 05:48:34;;;;;;;9.80;6.67;;;11.80;96.50;;;;;;5024477;28;20186;-61
2023/05/28 05:51:02;;;;;;;14.47;8.00;;;11.90;96.90;;;;;;5027934;28;20186;-62
2023/05/28 05:53:28;;;;;;;13.50;7.40;;;12.00;96.30;;;;;;5023482;28;20181;-62
2023/05/28 05:55:54;;;;;;;11.67;6.97;;;12.10;95.40;;;;;;5022667;28;20466;-62
2023/05/28 05:58:20;;;;;;;12.13;6.90;;;12.20;94.80;;;;;;5021186;28;21102;-62
2023/05/28 06:00:47;;;;;;;12.57;8.57;;;12.30;93.50;;;;;;5017212;28;20224;-61
2023/05/28 06:03:13;;;;;;;14.97;7.30;;;12.40;92.00;;;;;;5026451;28;20168;-62
2023/05/28 06:05:39;;;;;;;19.40;8.90;;;12.50;91.50;;;;;;5025549;28;20426;-62
2023/05/28 06:08:06;;;;;;;10.97;7.03;;;12.60;90.70;;;;;;5020762;28;20951;-62
2023/05/28 06:10:31;;;;;;;10.93;6.77;;;12.70;90.50;;;;;;5017468;28;20254;-63
2023/05/28 06:13:00;;;;;;;17.10;6.93;;;12.80;90.30;;;;;;5027764;28;20429;-62
2023/05/28 06:15:27;;;;;;;14.43;6.67;;;12.90;90.20;;;;;;5023774;28;20267;-63
2023/05/28 06:17:52;;;;;;;12.40;6.53;;;13.00;91.60;;;;;;5022998;28;20430;-63
2023/05/28 06:20:19;;;;;;;10.63;7.33;;;13.10;90.20;;;;;;5018667;28;20446;-62
2023/05/28 06:22:45;;;;;;;11.40;6.57;;;13.30;90.30;;;;;;5025192;28;20172;-62
2023/05/28 06:25:11;;;;;;;11.37;6.70;;;13.40;88.20;;;;;;5020334;28;20518;-62
2023/05/28 06:27:37;;;;;;;7.60;5.50;;;13.50;84.50;;;;;;5022164;28;20434;-62
2023/05/28 06:30:04;;;;;;;16.50;5.90;;;13.70;83.40;;;;;;5022330;28;20466;-62
2023/05/28 06:32:31;;;;;;;10.67;5.80;;;13.90;80.60;;;;;;5023607;28;20175;-62
2023/05/28 06:34:57;;;;;;;14.50;6.53;;;14.00;79.10;;;;;;5024124;28;21095;-61
2023/05/28 06:37:22;;;;;;;13.27;6.80;;;14.20;75.80;;;;;;5017467;28;20459;-61
2023/05/28 06:39:48;;;;;;;12.63;6.00;;;14.30;73.50;;;;;;5022369;28;21162;-63
2023/05/28 06:42:14;;;;;;;11.57;6.47;;;14.50;72.30;;;;;;5021069;28;20589;-62
2023/05/28 06:44:40;;;;;;;10.27;5.90;;;14.60;70.90;;;;;;5022071;28;20592;-63
2023/05/28 06:47:05;;;;;;;10.03;5.33;;;14.70;69.30;;;;;;5023426;28;20179;-61
2023/05/28 06:49:31;;;;;;;14.33;5.67;;;14.90;68.30;;;;;;5018334;28;20207;-62
2023/05/28 06:51:57;;;;;;;12.37;6.00;;;15.00;67.40;;;;;;5024054;28;20191;-63
2023/05/28 06:54:22;;;;;;;14.63;7.00;;;15.10;66.60;;;;;;5019032;28;20173;-62
2023/05/28 06:56:48;;;;;;;13.83;5.90;;;15.30;65.60;;;;;;5023590;28;20796;-62
2023/05/28 06:59:13;;;;;;;14.27;5.77;;;15.40;64.70;;;;;;5016582;28;20210;-62
2023/05/28 07:01:39;;;;;;;12.73;5.67;;;15.50;63.40;;;;;;5018394;28;20176;-62
2023/05/28 07:04:04;;;;;;;9.10;5.53;;;15.60;63.20;;;;;;5026582;28;20527;-62
2023/05/28 07:06:30;;;;;;;13.13;5.90;;;15.70;63.40;;;;;;5021058;28;20192;-63
2023/05/28 07:08:56;;;;;;;8.00;5.37;;;15.80;63.70;;;;;;5020587;28;20235;-62
2023/05/28 07:11:21;;;;;;;11.23;5.50;;;16.00;63.60;;;;;;5026406;28;20602;-62
2023/05/28 07:13:47;;;;;;;11.67;4.97;;;16.10;62.90;;;;;;5023497;28;20176;-63
2023/05/28 07:16:13;;;;;;;12.03;4.70;;;16.30;62.30;;;;;;5016640;28;20192;-62
2023/05/28 07:18:39;;;;;;;12.40;4.97;;;16.40;61.70;;;;;;5019846;28;20259;-63
2023/05/28 07:21:07;;;;;;;12.80;5.20;;;16.50;61.20;;;;;;5023546;28;20179;-63
2023/05/28 07:23:33;;;;;;;9.93;5.43;;;16.70;60.60;;;;;;5017200;28;20471;-63
2023/05/28 07:25:59;;;;;;;14.70;5.30;;;16.80;59.80;;;;;;5022023;28;20739;-63
2023/05/28 07:28:24;;;;;;;10.90;5.70;;;16.90;59.80;;;;;;5020256;28;20503;-61
2023/05/28 07:30:51;;;;;;;20.63;4.83;;;17.00;59.50;;;;;;5011798;28;20203;-61
2023/05/28 07:33:16;;;;;;;8.13;4.60;;;17.10;59.10;;;;;;5024164;28;20211;-61
2023/05/28 07:35:42;;;;;;;8.57;4.57;;;17.20;58.50;;;;;;5012018;28;21087;-62
2023/05/28 07:38:10;;;;;;;16.07;5.13;;;17.30;58.40;;;;;;5015343;28;20166;-62
2023/05/28 07:40:36;;;;;;;11.20;4.80;;;17.40;58.30;;;;;;5016958;28;20192;-63
2023/05/28 07:43:02;;;;;;;17.90;5.10;;;17.50;57.80;;;;;;5023611;28;20431;-63
2023/05/28 07:45:27;;;;;;;21.80;9.90;;;17.60;57.80;;;;;;5007817;28;20318;-61
2023/05/28 07:47:53;;;;;;;13.57;5.57;;;17.70;58.50;;;;;;5008702;28;21169;-61
2023/05/28 07:50:18;;;;;;;10.70;4.83;;;17.90;58.90;;;;;;5015153;28;20278;-63
2023/05/28 07:52:45;;;;;;;8.27;5.07;;;18.00;57.80;;;;;;5011598;28;20175;-62
2023/05/28 07:55:11;;;;;;;9.60;4.67;;;18.10;57.10;;;;;;5014841;28;20172;-62
2023/05/28 07:57:37;;;;;;;7.30;4.20;;;18.20;56.50;;;;;;5018737;28;20454;-62
2023/05/28 08:00:06;;;;;;;16.63;5.57;;;18.30;56.00;;;;;;5018054;28;20274;-62
2023/05/28 08:02:33;;;;;;;12.20;5.03;;;18.30;55.80;;;;;;5014870;28;20180;-60
2023/05/28 08:05:00;;;;;;;11.20;5.10;;;18.40;55.20;;;;;;5021951;28;21067;-61
2023/05/28 08:07:27;;;;;;;10.30;4.87;;;18.50;54.90;;;;;;5018306;28;20442;-61
2023/05/28 08:09:52;;;;;;;9.57;5.03;;;18.60;54.50;;;;;;5017384;28;20935;-62
2023/05/28 08:12:18;;;;;;;14.50;4.90;;;18.70;53.90;;;;;;5019498;28;20445;-61
2023/05/28 08:14:43;;;;;;;18.70;5.47;;;18.80;54.00;;;;;;5018201;28;20234;-61
2023/05/28 08:17:09;;;;;;;8.67;4.43;;;18.90;53.10;;;;;;5015906;28;20774;-62
2023/05/28 08:19:35;;;;;;;8.77;5.17;;;19.00;52.90;;;;;;5016888;28;20200;-63
2023/05/28 08:22:00;;;;;;;14.83;5.03;;;19.00;52.30;;;;;;5020868;28;20531;-64
2023/05/28 08:24:26;;;;;;;12.23;4.57;;;19.10;51.50;;;;;;5017154;28;20167;-61
2023/05/28 08:26:51;;;;;;;16.90;4.67;;;19.10;51.10;;;;;;5020267;28;20641;-61
2023/05/28 08:29:17;;;;;;;8.63;4.60;;;19.20;50.70;;;;;;5023952;28;20206;-57
2023/05/28 08:31:43;;;;;;;8.83;4.50;;;19.30;51.30;;;;;;5021163;28;20207;-61
2023/05/28 08:34:08;;;;;;;12.97;5.20;;;19.30;51.80;;;;;;5024951;28;20554;-61
2023/05/28 08:36:36;;;;;;;12.37;5.13;;;19.40;50.70;;;;;;5021505;28;20207;-61
2023/05/28 08:39:01;;;;;;;16.03;5.03;;;19.50;51.20;;;;;;5020649;28;20192;-61
2023/05/28 08:41:27;;;;;;;10.97;4.60;;;19.50;50.80;;;;;;5019924;28;20433;-62
2023/05/28 08:43:53;;;;;;;11.77;5.70;;;19.60;50.10;;;;;;5013712;28;20262;-62
2023/05/28 08:46:19;;;;;;;7.47;4.80;;;19.70;50.10;;;;;;5021012;28;20196;-62
2023/05/28 08:48:45;;;;;;;6.33;4.20;;;19.70;49.70;;;;;;5028487;28;20179;-62
2023/05/28 08:51:11;;;;;;;12.40;5.17;;;19.80;48.50;;;;;;5017913;28;20430;-59
2023/05/28 08:53:45;;;;;;;9.33;4.80;;;19.90;48.50;;;;;;5015205;28;20435;-63
2023/05/28 08:56:11;;;;;;;7.00;4.13;;;20.00;48.20;;;;;;5032027;28;20449;-63
2023/05/28 08:58:38;;;;;;;9.70;4.57;;;20.10;47.30;;;;;;5012934;28;20927;-63
2023/05/28 09:01:08;;;;;;;16.83;4.97;;;20.20;47.20;;;;;;5017323;28;20438;-63
2023/05/28 09:03:34;;;;;;;6.33;3.97;;;20.30;48.00;;;;;;5022259;28;20534;-64
2023/05/28 09:06:01;;;;;;;8.07;4.10;;;20.40;47.10;;;;;;5021268;28;20427;-63
2023/05/28 09:08:26;;;;;;;13.00;4.03;;;20.40;46.20;;;;;;5015532;28;20530;-62
2023/05/28 09:10:55;;;;;;;11.00;4.67;;;20.50;45.60;;;;;;5014981;28;20565;-64
2023/05/28 09:13:21;;;;;;;10.00;3.90;;;20.60;45.00;;;;;;5026786;28;20278;-64
2023/05/28 09:15:51;;;;;;;10.40;4.10;;;20.60;44.80;;;;;;5021234;28;20549;-64
2023/05/28 09:18:23;;;;;;;10.03;4.00;;;20.70;44.40;;;;;;5017130;28;20180;-63
2023/05/28 09:20:49;;;;;;;8.97;3.80;;;20.70;44.00;;;;;;5023044;28;20509;-64
2023/05/28 09:23:17;;;;;;;7.87;4.07;;;20.80;44.10;;;;;;5023841;28;20439;-64
2023/05/28 09:25:44;;;;;;;9.13;4.90;;;20.90;43.40;;;;;;5022716;28;20442;-64
2023/05/28 09:28:15;;;;;;;8.50;4.63;;;20.90;43.40;;;;;;5015378;28;20502;-64
2023/05/28 09:30:41;;;;;;;7.87;4.17;;;21.00;43.30;;;;;;5016103;28;20449;-64
2023/05/28 09:33:07;;;;;;;12.30;4.77;;;21.10;43.40;;;;;;5015329;28;20443;-63
2023/05/28 09:35:34;;;;;;;7.73;3.80;;;21.10;43.20;;;;;;5021842;28;20442;-64
2023/05/28 09:38:11;;;;;;;10.07;4.07;;;21.20;43.60;;;;;;5022021;28;20435;-63
2023/05/28 09:40:41;;;;;;;10.60;4.50;;;21.30;42.60;;;;;;5022344;28;20442;-64
2023/05/28 09:43:08;;;;;;;9.83;4.10;;;21.30;41.90;;;;;;5025615;28;20434;-64
2023/05/28 09:45:34;;;;;;;10.37;4.27;;;21.40;42.40;;;;;;5021956;28;20461;-64
2023/05/28 09:48:00;;;;;;;11.97;3.83;;;21.50;42.10;;;;;;5023951;28;20525;-64
2023/05/28 09:50:26;;;;;;;7.53;3.93;;;21.60;42.30;;;;;;5026652;28;20938;-64
2023/05/28 09:52:55;;;;;;;8.63;4.80;;;21.70;41.80;;;;;;5028364;28;20438;-64
2023/05/28 09:55:24;;;;;;;11.30;4.30;;;21.80;41.90;;;;;;5023526;28;20584;-64
2023/05/28 09:58:05;;;;;;;8.60;4.27;;;21.80;42.80;;;;;;5017347;28;20505;-64
2023/05/28 10:00:46;;;;;;;8.00;3.57;;;22.00;43.60;;;;;;5020018;28;20485;-64
2023/05/28 10:03:28;;;;;;;6.87;4.50;;;22.00;42.50;;;;;;5021935;28;20449;-63
2023/05/28 10:06:01;;;;;;;10.23;4.03;;;22.10;43.50;;;;;;5019258;28;20473;-65
2023/05/28 10:08:27;;;;;;;8.43;4.20;;;22.20;41.90;;;;;;5025535;28;21225;-62
2023/05/28 10:10:54;;;;;;;8.50;3.80;;;22.30;42.00;;;;;;5021674;28;21182;-65
2023/05/28 10:13:25;;;;;;;6.73;4.00;;;22.30;40.40;;;;;;5039105;28;20434;-64
2023/05/28 10:15:51;;;;;;;8.63;4.00;;;22.40;40.10;;;;;;5018737;28;20454;-64
2023/05/28 10:18:19;;;;;;;7.33;4.50;;;22.50;41.20;;;;;;5018636;28;20478;-65
2023/05/28 10:20:46;;;;;;;6.73;3.80;;;22.60;43.10;;;;;;5023141;28;20430;-64
2023/05/28 10:23:12;;;;;;;9.23;4.10;;;22.80;41.80;;;;;;5021636;28;20426;-64
2023/05/28 10:25:38;;;;;;;6.90;3.50;;;22.80;42.40;;;;;;5018261;28;20414;-64
2023/05/28 10:28:05;;;;;;;5.97;3.70;;;22.90;41.90;;;;;;5019003;28;20761;-64
2023/05/28 10:30:37;;;;;;;6.27;3.63;;;23.00;41.10;;;;;;5019920;28;20777;-64
2023/05/28 10:33:14;;;;;;;8.83;4.70;;;23.10;41.50;;;;;;5022542;28;20429;-65
2023/05/28 10:35:53;;;;;;;6.43;3.80;;;23.20;41.20;;;;;;5016567;28;20419;-64
2023/05/28 10:38:19;;;;;;;8.57;4.50;;;23.30;42.70;;;;;;5026559;28;20510;-65
2023/05/28 10:40:45;;;;;;;8.20;4.27;;;23.40;42.60;;;;;;5022845;28;20541;-64
2023/05/28 10:43:39;;;;;;;7.70;3.93;;;23.50;41.50;;;;;;5021901;28;20176;-64
2023/05/28 10:46:17;;;;;;;8.13;4.13;;;23.50;41.20;;;;;;5018379;28;20363;-64
2023/05/28 10:49:03;;;;;;;6.20;3.73;;;23.60;41.40;;;;;;5015145;28;20441;-65
2023/05/28 10:51:55;;;;;;;6.20;4.27;;;23.60;41.90;;;;;;5021075;28;20501;-58
2023/05/28 10:54:40;;;;;;;9.07;4.57;;;23.70;40.90;;;;;;5015720;28;20423;-58
2023/05/28 10:57:21;;;;;;;7.07;4.03;;;23.80;41.40;;;;;;5018614;28;20446;-57
2023/05/28 10:59:48;;;;;;;9.23;4.00;;;23.90;41.20;;;;;;5021595;28;20466;-58
2023/05/28 11:02:28;;;;;;;11.40;4.07;;;24.00;41.20;;;;;;5022763;28;20474;-57
2023/05/28 11:05:01;;;;;;;7.20;3.47;;;24.00;40.40;;;;;;5021844;28;20801;-58
2023/05/28 11:07:35;;;;;;;9.93;3.77;;;24.10;38.30;;;;;;5023170;28;20457;-58
2023/05/28 11:10:02;;;;;;;10.20;3.87;;;24.20;40.20;;;;;;5025180;28;20508;-58
2023/05/28 11:12:30;;;;;;;12.03;4.17;;;24.30;40.50;;;;;;5023015;28;20517;-58
2023/05/28 11:14:56;;;;;;;10.03;3.77;;;24.40;39.80;;;;;;5019770;28;20945;-57
2023/05/28 11:17:22;;;;;;;9.07;3.90;;;24.40;41.10;;;;;;5023179;28;20467;-59
2023/05/28 11:19:51;;;;;;;8.93;4.23;;;24.50;40.30;;;;;;5016249;28;20596;-59
2023/05/28 11:22:18;;;;;;;10.40;4.03;;;24.60;41.00;;;;;;5018202;28;20184;-58
2023/05/28 11:24:52;;;;;;;6.37;4.00;;;24.70;41.80;;;;;;5020268;28;20509;-58
2023/05/28 11:27:18;;;;;;;6.00;3.90;;;24.80;39.30;;;;;;5024005;28;20418;-58
2023/05/28 11:29:44;;;;;;;5.90;3.50;;;24.80;38.90;;;;;;5018573;28;20445;-59
2023/05/28 11:32:09;;;;;;;5.37;3.70;;;24.90;38.20;;;;;;5017460;28;20183;-59
2023/05/28 11:34:37;;;;;;;13.43;3.73;;;24.90;37.50;;;;;;5017543;28;20211;-58
2023/05/28 11:37:05;;;;;;;6.17;3.97;;;25.10;37.50;;;;;;5018048;28;20303;-59
2023/05/28 11:39:30;;;;;;;9.17;3.93;;;25.10;36.90;;;;;;5016666;28;20441;-58
2023/05/28 11:41:56;;;;;;;7.90;3.80;;;25.20;36.70;;;;;;5016304;28;20477;-58
2023/05/28 11:44:22;;;;;;;6.97;4.17;;;25.20;36.30;;;;;;5018747;28;20183;-60
2023/05/28 11:46:54;;;;;;;7.03;3.70;;;25.30;35.40;;;;;;5023196;28;20262;-58
2023/05/28 11:49:20;;;;;;;9.57;3.73;;;25.30;36.10;;;;;;5019413;28;21835;-58
2023/05/28 11:51:46;;;;;;;13.30;4.13;;;25.30;33.10;;;;;;5018199;28;20434;-58
2023/05/28 11:54:11;;;;;;;13.07;3.40;;;25.30;35.00;;;;;;5014968;28;20437;-58
2023/05/28 11:56:37;;;;;;;7.63;3.67;;;25.40;34.50;;;;;;5023209;28;20305;-58
2023/05/28 11:59:03;;;;;;;10.13;3.43;;;25.40;35.20;;;;;;5018044;28;20237;-59
2023/05/28 12:01:33;;;;;;;6.63;3.93;;;25.50;36.20;;;;;;5020655;28;20171;-58
2023/05/28 12:04:06;;;;;;;5.30;3.53;;;25.60;37.30;;;;;;5012035;28;20184;-58
2023/05/28 12:06:51;;;;;;;7.27;3.90;;;25.80;37.90;;;;;;5020581;28;20425;-58
2023/05/28 12:09:17;;;;;;;10.40;3.90;;;25.90;38.00;;;;;;5018202;28;20587;-59
2023/05/28 12:11:43;;;;;;;5.80;3.27;;;26.00;36.60;;;;;;5018417;28;20530;-59
2023/05/28 12:14:12;;;;;;;8.20;4.20;;;26.00;34.90;;;;;;5014093;28;20240;-58
2023/05/28 12:16:47;;;;;;;6.13;3.60;;;26.10;37.10;;;;;;5017265;28;20280;-64
2023/05/28 12:19:17;;;;;;;6.40;3.57;;;26.20;37.20;;;;;;5016193;28;20456;-64
2023/05/28 12:21:43;;;;;;;10.83;3.70;;;26.30;36.80;;;;;;5016551;28;20426;-65
2023/05/28 12:24:14;;;;;;;7.20;3.60;;;26.50;37.70;;;;;;5022065;28;20517;-64
2023/05/28 12:26:40;;;;;;;6.77;4.20;;;26.60;37.30;;;;;;5014367;28;20461;-66
2023/05/28 12:29:05;;;;;;;4.90;3.17;;;26.70;37.60;;;;;;5016545;28;20467;-64
2023/05/28 12:31:31;;;;;;;6.30;3.33;;;26.90;37.00;;;;;;5019858;28;20242;-65
2023/05/28 12:33:57;;;;;;;7.50;3.47;;;26.90;35.70;;;;;;5021779;28;20175;-65
2023/05/28 12:36:22;;;;;;;9.20;4.23;;;27.00;35.00;;;;;;5016447;28;20196;-65
2023/05/28 12:38:48;;;;;;;8.00;3.80;;;27.10;35.70;;;;;;5018870;28;20716;-64
2023/05/28 12:41:13;;;;;;;5.23;3.60;;;27.20;36.10;;;;;;5016010;28;20180;-63